San Antonio, TX (78201)

9:55 PM CDT on August 29, 2015 (GMT -0500)
Monticello Park | | Change Station
CLOSE
Current Station
Personal Weather Station
Location: San Antonio, TX
Elevation: 751 ft
Nearby Weather Stations

Elev 751 ft 29.47 °N, 98.53 °W | Updated 2 minutes ago

Partly Cloudy
Partly Cloudy
84.7 °F
Feels Like 85 °F
N
3.8
Wind Variable Wind from ESE

Today
High -- | Low -- °F
--% Chance of Precip.
Yesterday
High -- | Low -- °F
Precip. -- in
7:09 AM 7:59 PM
Full, 100% visible
Pressure 29.94 in
Visibility 10.0 miles
Clouds Mostly Cloudy 25000 ft
Heat Index 85 °F
Dew Point 62 °F
Humidity 47%
Rainfall 0.00 in
Snow Depth Not available.
UV 0 out of 12
Pollen 8.20 out of 12
Air Quality Not available.
Flu Activity Not available.
METAR KSAT 300251Z 11006KT 10SM BKN250 28/16 A2999 RMK AO2 SLP137 T02830156 53009
Pressure 29.94 in
Visibility 10.0 miles
Clouds Mostly Cloudy 25000 ft
Heat Index 85 °F
Dew Point 62 °F
Humidity 47%
Rainfall 0.00 in
Snow Depth Not available.
UV 0 out of 12
Pollen 8.20 out of 12
Air Quality Not available.
Flu Activity Not available.
METAR KSAT 300251Z 11006KT 10SM BKN250 28/16 A2999 RMK AO2 SLP137 T02830156 53009

10-Day Weather Forecast

×

Almanac

Astronomy

Aug. 29, 2015 Rise Set
Actual Time
Civil Twilight
Nautical Twilight
Astronomical Twilight
Moon
Length of Visible Light
Length of Day
Tomorrow will be .
, % of the Moon is Illuminated

Today's Extremes

State Highs State Lows

Community

WunderPhotos

Upload Photos

1,850,855 photos uploaded!

WunderBlogs® & News

Nearby

Air Quality

  Air Quality AQ Index Pollutant
Not available.

Snow Depth

Station Depth Elevation

Earthquake Activity

City Distance Mag. Time & Date
Minimum magnitude displayed is 2.5.

Coastal Water Temperatures

Place Temperature

Stations

Nearby Weather Stations

Station Location Temp. Windchill Dew Point Humidity Wind Precip. Elev Updated Type